Federal Yukina — VRHN7 — position and weather

sailwx.info

Track history (hours):
 
Tides and Currents Weather Stations Pressure Air Temp Water Temp Dewpoint Dewpoint Depression Visibility Wind Speed Wind Dir Waves Ship Positions

Federal Yukina

Last reported at 2018-Jan-20 13:27 UTC. Time now 2018-Jan-21 04:56 UTC.
Position N 41°02' E 028°60'.

Length 200 m; draft 6 m.

Type: Cargo ship. MMSI: 477959900.

Date/timePositionNaut miles runAvg speedWind from/ knotsBaromVisibWave heightAir tempDewpointWater temp
2018-Jan-20 13:27N 41°02' E 028°60'4 8.2
2018-Jan-20 12:58N 40°58' E 028°59'4 7.7
2018-Jan-20 12:30N 40°54' E 028°57'4 7.9
2018-Jan-20 12:00N 40°52' E 028°53'4 8.5
2018-Jan-20 11:29N 40°51' E 028°47'8 8.0
2018-Jan-20 10:32N 40°50' E 028°37'25612.2
2018-Jan-19 13:37N 37°54' E 024°36'213.2
2018-Jan-19 13:28N 37°52' E 024°35'613.0
2018-Jan-19 13:00N 37°47' E 024°32'613.0
2018-Jan-19 12:30N 37°41' E 024°30'713.1
2018-Jan-19 12:00N 37°35' E 024°27'713.2
2018-Jan-19 11:30N 37°29' E 024°22'713.4
2018-Jan-19 11:00N 37°24' E 024°17'713.5
2018-Jan-19 10:30N 37°18' E 024°14'713.5
2018-Jan-19 10:00N 37°11' E 024°11'713.5
2018-Jan-19 09:30N 37°05' E 024°08'713.8
2018-Jan-19 09:00N 36°58' E 024°05'713.8
2018-Jan-19 08:30N 36°52' E 024°04'713.4
2018-Jan-19 08:00N 36°45' E 024°01'713.5
2018-Jan-19 07:30N 36°42' E 023°54'713.8
2018-Jan-19 07:00N 36°37' E 023°49'713.9
2018-Jan-19 06:30N 36°31' E 023°43'51611.9
2018-Jan-17 11:00N 42°30' E 015°42'   250 / 25996.6 5.4 18.016.314.0
Track history (hours):
 
Tides and Currents Weather Stations Pressure Air Temp Water Temp Dewpoint Dewpoint Depression Visibility Wind Speed Wind Dir Waves Ship Positions

Federal Yukina

Last reported at 2018-Jan-20 13:27 UTC. Time now 2018-Jan-21 04:56 UTC.
Position N 41°02' E 028°60'.

Length 200 m; draft 6 m.

Type: Cargo ship. MMSI: 477959900.

Date/timePositionNaut miles runAvg speedWind from/ knotsBaromVisibWave heightAir tempDewpointWater temp
2018-Jan-20 13:27N 41°02' E 028°60'4 8.2
2018-Jan-20 12:58N 40°58' E 028°59'4 7.7
2018-Jan-20 12:30N 40°54' E 028°57'4 7.9
2018-Jan-20 12:00N 40°52' E 028°53'4 8.5
2018-Jan-20 11:29N 40°51' E 028°47'8 8.0
2018-Jan-20 10:32N 40°50' E 028°37'25612.2
2018-Jan-19 13:37N 37°54' E 024°36'213.2
2018-Jan-19 13:28N 37°52' E 024°35'613.0
2018-Jan-19 13:00N 37°47' E 024°32'613.0
2018-Jan-19 12:30N 37°41' E 024°30'713.1
2018-Jan-19 12:00N 37°35' E 024°27'713.2
2018-Jan-19 11:30N 37°29' E 024°22'713.4
2018-Jan-19 11:00N 37°24' E 024°17'713.5
2018-Jan-19 10:30N 37°18' E 024°14'713.5
2018-Jan-19 10:00N 37°11' E 024°11'713.5
2018-Jan-19 09:30N 37°05' E 024°08'713.8
2018-Jan-19 09:00N 36°58' E 024°05'713.8
2018-Jan-19 08:30N 36°52' E 024°04'713.4
2018-Jan-19 08:00N 36°45' E 024°01'713.5
2018-Jan-19 07:30N 36°42' E 023°54'713.8
2018-Jan-19 07:00N 36°37' E 023°49'713.9
2018-Jan-19 06:30N 36°31' E 023°43'51611.9
2018-Jan-17 11:00N 42°30' E 015°42'   250 / 25996.6 5.4 18.016.314.0

Dump ship's entire track history